createdAt,value
2023-03-11T00:00:01.949Z,4.30
2023-03-11T00:02:32.429Z,6.00
2023-03-11T00:04:59.933Z,8.03
2023-03-11T00:07:27.402Z,2.27
2023-03-11T00:09:54.781Z,2.47
2023-03-11T00:12:22.571Z,2.03
2023-03-11T00:14:49.869Z,1.90
2023-03-11T00:17:17.269Z,2.53
2023-03-11T00:19:44.620Z,6.93
2023-03-11T00:22:15.767Z,8.00
2023-03-11T00:24:43.487Z,4.53
2023-03-11T00:27:11.000Z,2.00
2023-03-11T00:29:39.023Z,2.30
2023-03-11T00:32:06.576Z,1.97
2023-03-11T00:34:33.948Z,2.40
2023-03-11T00:37:07.525Z,2.10
2023-03-11T00:39:34.962Z,1.83
2023-03-11T00:42:03.293Z,2.33
2023-03-11T00:44:31.114Z,2.03
2023-03-11T00:46:58.656Z,1.20
2023-03-11T00:49:29.010Z,1.80
2023-03-11T00:52:00.350Z,1.90
2023-03-11T00:54:30.996Z,2.00
2023-03-11T00:56:59.564Z,1.67
2023-03-11T00:59:26.941Z,1.60
2023-03-11T01:01:54.278Z,1.43
2023-03-11T01:04:21.732Z,1.53
2023-03-11T01:06:49.227Z,1.80
2023-03-11T01:09:16.650Z,1.70
2023-03-11T01:11:43.983Z,1.90
2023-03-11T01:14:11.498Z,2.73
2023-03-11T01:16:39.010Z,4.63
2023-03-11T01:19:06.335Z,1.47
2023-03-11T01:21:33.637Z,8.33
2023-03-11T01:24:01.774Z,2.30
2023-03-11T01:26:29.170Z,1.97
2023-03-11T01:28:58.482Z,3.07
2023-03-11T01:31:27.808Z,1.77
2023-03-11T01:33:55.240Z,1.70
2023-03-11T01:36:22.507Z,2.63
2023-03-11T01:38:49.991Z,1.90
2023-03-11T01:41:17.713Z,1.70
2023-03-11T01:43:47.434Z,3.53
2023-03-11T01:46:20.974Z,2.30
2023-03-11T01:48:53.450Z,2.50
2023-03-11T01:51:26.627Z,1.73
2023-03-11T01:53:54.588Z,1.90
2023-03-11T01:56:22.439Z,1.97
2023-03-11T01:58:52.460Z,2.00
2023-03-11T02:01:20.860Z,1.80
2023-03-11T02:03:52.126Z,1.40
2023-03-11T02:06:25.272Z,1.90
2023-03-11T02:08:52.779Z,4.90
2023-03-11T02:11:27.508Z,2.37
2023-03-11T02:13:57.414Z,2.33
2023-03-11T02:16:24.828Z,2.00
2023-03-11T02:18:52.503Z,3.73
2023-03-11T02:21:20.273Z,2.07
2023-03-11T02:24:06.679Z,2.80
2023-03-11T02:26:43.861Z,3.20
2023-03-11T02:29:12.347Z,2.20
2023-03-11T02:31:43.401Z,5.03
2023-03-11T02:34:16.730Z,2.13
2023-03-11T02:36:44.328Z,2.50
2023-03-11T02:39:13.760Z,2.23
2023-03-11T02:41:43.369Z,2.63
2023-03-11T02:44:17.187Z,2.27
2023-03-11T02:46:46.939Z,2.37
2023-03-11T02:49:14.950Z,3.20
2023-03-11T02:51:48.761Z,2.40
2023-03-11T02:54:16.602Z,2.43
2023-03-11T02:56:44.001Z,3.57
2023-03-11T02:59:11.376Z,2.50
2023-03-11T03:01:41.222Z,2.77
2023-03-11T03:04:08.476Z,5.20
2023-03-11T03:06:35.861Z,3.63
2023-03-11T03:09:03.481Z,4.07
2023-03-11T03:11:35.284Z,3.77
2023-03-11T03:14:02.740Z,2.53
2023-03-11T03:16:30.061Z,3.67
2023-03-11T03:18:57.556Z,3.63
2023-03-11T03:21:24.917Z,2.67
2023-03-11T03:23:54.104Z,2.60
2023-03-11T03:26:23.990Z,2.50
2023-03-11T03:28:53.811Z,7.20
2023-03-11T03:31:23.340Z,2.20
2023-03-11T03:33:54.735Z,2.87
2023-03-11T03:36:24.868Z,2.90
2023-03-11T03:38:56.339Z,3.23
2023-03-11T03:41:26.663Z,3.60
2023-03-11T03:43:55.974Z,2.90
2023-03-11T03:46:26.166Z,2.90
2023-03-11T03:48:56.237Z,2.27
2023-03-11T03:51:23.618Z,2.40
2023-03-11T03:53:50.951Z,3.27
2023-03-11T03:56:19.384Z,3.57
2023-03-11T03:58:46.683Z,2.90
2023-03-11T04:01:14.510Z,2.40
2023-03-11T04:03:42.031Z,2.97
2023-03-11T04:06:10.459Z,2.60
2023-03-11T04:08:40.594Z,2.30
2023-03-11T04:11:09.211Z,2.43
2023-03-11T04:13:39.340Z,2.77
2023-03-11T04:16:07.774Z,2.17
2023-03-11T04:18:35.723Z,2.60
2023-03-11T04:21:06.593Z,2.70
2023-03-11T04:23:34.590Z,3.13
2023-03-11T04:26:10.669Z,2.17
2023-03-11T04:28:41.491Z,3.67
2023-03-11T04:31:12.601Z,2.57
2023-03-11T04:33:40.495Z,2.87
2023-03-11T04:36:11.879Z,3.30
2023-03-11T04:38:40.181Z,3.97
2023-03-11T04:41:07.868Z,2.50
2023-03-11T04:43:36.323Z,3.90
2023-03-11T04:46:06.124Z,2.00
2023-03-11T04:48:33.550Z,4.43
2023-03-11T04:51:00.963Z,2.47
2023-03-11T04:53:28.306Z,4.20
2023-03-11T04:55:55.775Z,2.53
2023-03-11T04:58:23.255Z,2.40
2023-03-11T05:00:53.388Z,2.17
2023-03-11T05:03:21.257Z,4.13
2023-03-11T05:05:51.720Z,4.47
2023-03-11T05:08:19.380Z,4.33
2023-03-11T05:10:48.787Z,3.03
2023-03-11T05:13:16.106Z,2.63
2023-03-11T05:15:43.540Z,2.90
2023-03-11T05:18:11.210Z,2.30
2023-03-11T05:20:41.551Z,3.87
2023-03-11T05:23:08.946Z,2.23
2023-03-11T05:25:41.257Z,4.47
2023-03-11T05:28:08.551Z,3.07
2023-03-11T05:30:36.011Z,5.03
2023-03-11T05:33:03.533Z,4.77
2023-03-11T05:35:33.471Z,4.87
2023-03-11T05:38:03.288Z,3.33
2023-03-11T05:40:30.974Z,2.77
2023-03-11T05:42:58.339Z,3.77
2023-03-11T05:45:27.486Z,3.43
2023-03-11T05:48:02.220Z,4.80
2023-03-11T05:50:29.871Z,5.13
2023-03-11T05:52:57.208Z,7.13
2023-03-11T05:55:30.842Z,4.47
2023-03-11T05:57:58.768Z,4.63
2023-03-11T06:00:29.589Z,5.43
2023-03-11T06:02:59.589Z,3.00
2023-03-11T06:05:29.721Z,4.00
2023-03-11T06:07:57.092Z,2.40
2023-03-11T06:10:27.392Z,2.87
2023-03-11T06:12:54.967Z,2.67
2023-03-11T06:15:22.420Z,2.47
2023-03-11T06:17:51.259Z,3.23
2023-03-11T06:20:19.146Z,2.30
2023-03-11T06:22:58.302Z,3.90
2023-03-11T06:25:25.682Z,2.57
2023-03-11T06:27:55.053Z,2.90
2023-03-11T06:30:22.736Z,2.80
2023-03-11T06:32:55.353Z,3.33
2023-03-11T06:35:22.992Z,2.77
2023-03-11T06:37:50.286Z,3.77
2023-03-11T06:40:18.142Z,3.53
2023-03-11T06:42:48.534Z,2.67
2023-03-11T06:45:15.982Z,2.50
2023-03-11T06:47:43.295Z,3.57
2023-03-11T06:50:10.827Z,2.57
2023-03-11T06:52:38.083Z,2.43
2023-03-11T06:55:05.585Z,2.40
2023-03-11T06:57:33.904Z,2.83
2023-03-11T07:00:01.307Z,2.30
2023-03-11T07:02:28.626Z,2.83
2023-03-11T07:04:55.908Z,2.43
2023-03-11T07:07:23.372Z,2.60
2023-03-11T07:09:50.637Z,3.00
2023-03-11T07:12:18.057Z,3.93
2023-03-11T07:14:45.853Z,3.47
2023-03-11T07:17:13.458Z,3.13
2023-03-11T07:19:41.160Z,4.27
2023-03-11T07:22:08.725Z,2.80
2023-03-11T07:24:36.032Z,2.67
2023-03-11T07:27:03.615Z,2.73
2023-03-11T07:29:30.939Z,3.30
2023-03-11T07:31:58.376Z,3.23
2023-03-11T07:34:25.991Z,2.40
2023-03-11T07:36:55.035Z,2.97
2023-03-11T07:39:22.590Z,2.00
2023-03-11T07:41:51.042Z,3.93
2023-03-11T07:44:19.603Z,2.77
2023-03-11T07:46:47.303Z,3.73
2023-03-11T07:49:15.129Z,3.00
2023-03-11T07:51:43.901Z,2.40
2023-03-11T07:54:11.809Z,3.63
2023-03-11T07:56:39.305Z,4.33
2023-03-11T07:59:06.758Z,3.83
2023-03-11T08:01:41.303Z,2.30
2023-03-11T08:04:13.721Z,2.40
2023-03-11T08:06:43.851Z,2.33
2023-03-11T08:09:14.548Z,1.90
2023-03-11T08:11:42.528Z,3.40
2023-03-11T08:14:12.476Z,2.23
2023-03-11T08:16:40.467Z,4.10
2023-03-11T08:19:14.343Z,1.67
2023-03-11T08:21:41.971Z,2.53
2023-03-11T08:24:11.602Z,10.83
2023-03-11T08:26:38.993Z,4.13
2023-03-11T08:29:06.328Z,4.00
2023-03-11T08:31:35.571Z,3.30
2023-03-11T08:34:04.762Z,1.80
2023-03-11T08:36:32.596Z,2.50
2023-03-11T08:39:00.443Z,2.30
2023-03-11T08:41:28.576Z,2.47
2023-03-11T08:43:55.833Z,1.83
2023-03-11T08:46:31.781Z,1.90
2023-03-11T08:49:01.208Z,1.60
2023-03-11T08:51:29.600Z,2.20
2023-03-11T08:53:56.990Z,4.13
2023-03-11T08:56:25.817Z,3.00
2023-03-11T08:58:53.113Z,5.17
2023-03-11T09:01:20.448Z,1.60
2023-03-11T09:03:47.869Z,2.77
2023-03-11T09:06:16.241Z,2.07
2023-03-11T09:08:44.134Z,3.43
2023-03-11T09:11:13.748Z,3.97
2023-03-11T09:13:41.535Z,5.40
2023-03-11T09:16:19.813Z,3.33
2023-03-11T09:18:47.788Z,2.27
2023-03-11T09:21:15.226Z,2.83
2023-03-11T09:23:44.519Z,1.67
2023-03-11T09:26:12.544Z,2.20
2023-03-11T09:28:40.536Z,2.77
2023-03-11T09:31:07.913Z,2.27
2023-03-11T09:33:43.112Z,3.63
2023-03-11T09:36:14.850Z,1.70
2023-03-11T09:38:42.747Z,3.07
2023-03-11T09:41:19.285Z,2.27
2023-03-11T09:44:01.753Z,2.17
2023-03-11T09:46:51.867Z,2.10
2023-03-11T09:49:34.270Z,2.30
2023-03-11T09:52:22.003Z,2.03
2023-03-11T09:54:52.433Z,3.67
2023-03-11T09:57:24.762Z,2.47
2023-03-11T09:59:52.377Z,1.73
2023-03-11T10:02:21.102Z,2.27
2023-03-11T10:04:54.830Z,2.50
2023-03-11T10:07:24.838Z,3.63
2023-03-11T10:09:53.926Z,2.40
2023-03-11T10:12:21.321Z,3.73
2023-03-11T10:14:48.633Z,3.57
2023-03-11T10:17:34.644Z,3.37
2023-03-11T10:20:20.609Z,3.33
2023-03-11T10:23:12.205Z,1.50
2023-03-11T10:25:48.208Z,2.23
2023-03-11T10:28:17.963Z,2.87
2023-03-11T10:30:56.959Z,1.50
2023-03-11T10:33:36.350Z,2.30
2023-03-11T10:36:14.973Z,1.60
2023-03-11T10:38:47.183Z,2.53
2023-03-11T10:41:18.342Z,1.40
2023-03-11T10:43:48.354Z,1.57
2023-03-11T10:46:25.957Z,1.77
2023-03-11T10:48:53.650Z,3.87
2023-03-11T10:51:26.895Z,4.57
2023-03-11T10:53:55.414Z,4.93
2023-03-11T10:56:28.256Z,1.40
2023-03-11T10:58:56.153Z,2.37
2023-03-11T11:01:23.468Z,1.20
2023-03-11T11:03:52.040Z,1.83
2023-03-11T11:06:21.676Z,3.57
2023-03-11T11:08:49.118Z,1.60
2023-03-11T11:11:24.340Z,1.97
2023-03-11T11:13:58.919Z,4.20
2023-03-11T11:16:26.584Z,5.80
2023-03-11T11:19:00.805Z,4.50
2023-03-11T11:21:36.058Z,1.70
2023-03-11T11:24:22.188Z,4.10
2023-03-11T11:27:06.136Z,1.40
2023-03-11T11:29:34.773Z,1.37
2023-03-11T11:32:19.012Z,1.63
2023-03-11T11:35:03.203Z,2.13
2023-03-11T11:37:32.284Z,2.47
2023-03-11T11:40:11.416Z,1.90
2023-03-11T11:42:40.352Z,2.63
2023-03-11T11:45:10.990Z,1.40
2023-03-11T11:47:40.691Z,4.47
2023-03-11T11:50:14.334Z,2.50
2023-03-11T11:52:45.195Z,2.73
2023-03-11T11:55:24.738Z,1.67
2023-03-11T11:57:52.480Z,4.33
2023-03-11T12:00:25.940Z,2.97
2023-03-11T12:02:56.297Z,1.80
2023-03-11T12:05:34.708Z,1.73
2023-03-11T12:08:18.390Z,1.63
2023-03-11T12:10:58.169Z,1.57
2023-03-11T12:13:25.419Z,3.30
2023-03-11T12:15:52.823Z,5.40
2023-03-11T12:18:27.686Z,1.77
2023-03-11T12:20:58.639Z,2.93
2023-03-11T12:23:29.387Z,1.30
2023-03-11T12:26:15.593Z,3.77
2023-03-11T12:28:52.063Z,3.27
2023-03-11T12:31:20.547Z,1.50
2023-03-11T12:33:56.922Z,1.80
2023-03-11T12:36:32.302Z,2.00
2023-03-11T12:39:00.708Z,1.33
2023-03-11T12:41:27.988Z,1.40
2023-03-11T12:44:05.885Z,1.50
2023-03-11T12:47:08.950Z,2.63
2023-03-11T12:49:41.154Z,3.37
2023-03-11T12:52:14.758Z,1.90
2023-03-11T12:54:42.953Z,11.90
2023-03-11T12:57:10.225Z,2.20
2023-03-11T12:59:40.765Z,1.83
2023-03-11T13:02:11.048Z,3.53
2023-03-11T13:04:38.688Z,1.67
2023-03-11T13:07:15.236Z,4.07
2023-03-11T13:09:42.490Z,1.63
2023-03-11T13:12:28.744Z,3.30
2023-03-11T13:15:15.029Z,4.83
2023-03-11T13:17:42.400Z,4.30
2023-03-11T13:20:29.569Z,1.83
2023-03-11T13:22:56.945Z,2.17
2023-03-11T13:25:27.255Z,2.60
2023-03-11T13:27:59.432Z,1.67
2023-03-11T13:30:29.376Z,3.00
2023-03-11T13:32:59.767Z,9.17
2023-03-11T13:35:53.066Z,2.67
2023-03-11T13:38:40.619Z,2.90
2023-03-11T13:41:25.569Z,2.77
2023-03-11T13:43:53.453Z,1.50
2023-03-11T13:46:20.725Z,1.70
2023-03-11T13:48:49.603Z,2.93
2023-03-11T13:51:31.661Z,2.47
2023-03-11T13:54:03.304Z,2.20
2023-03-11T13:56:33.401Z,1.60
2023-03-11T13:59:19.830Z,1.73
2023-03-11T14:01:58.134Z,2.17
2023-03-11T14:04:29.808Z,2.87
2023-03-11T14:06:57.343Z,6.07
2023-03-11T14:09:26.156Z,3.87
2023-03-11T14:11:54.390Z,5.60
2023-03-11T14:14:40.606Z,6.00
2023-03-11T14:17:11.411Z,4.10
2023-03-11T14:19:38.762Z,1.63
2023-03-11T14:22:08.495Z,2.63
2023-03-11T14:24:36.500Z,1.73
2023-03-11T14:27:08.260Z,1.70
2023-03-11T14:29:40.434Z,2.07
2023-03-11T14:32:26.921Z,2.23
2023-03-11T14:34:54.398Z,3.53
2023-03-11T14:37:24.699Z,3.63
2023-03-11T14:39:54.072Z,2.80
2023-03-11T14:42:30.347Z,1.97
2023-03-11T14:45:07.016Z,2.13
2023-03-11T14:47:49.526Z,3.63
2023-03-11T14:50:26.700Z,2.47
2023-03-11T14:52:54.176Z,3.77
2023-03-11T14:55:23.800Z,2.90
2023-03-11T14:57:51.033Z,2.50
2023-03-11T15:00:33.706Z,2.93
2023-03-11T15:03:01.313Z,1.70
2023-03-11T15:05:37.934Z,2.37
2023-03-11T15:08:07.478Z,1.70
2023-03-11T15:10:36.862Z,2.70
2023-03-11T15:13:09.562Z,2.27
2023-03-11T15:15:36.976Z,7.93
2023-03-11T15:18:04.598Z,5.43
2023-03-11T15:20:36.496Z,6.03
2023-03-11T15:23:05.435Z,5.20
2023-03-11T15:25:37.799Z,2.90
2023-03-11T15:28:27.104Z,6.23
2023-03-11T15:31:13.328Z,4.17
2023-03-11T15:33:40.888Z,1.70
2023-03-11T15:36:28.121Z,3.80
2023-03-11T15:39:14.233Z,3.40
2023-03-11T15:41:42.586Z,2.53
2023-03-11T15:44:22.962Z,1.40
2023-03-11T15:46:50.348Z,1.83
2023-03-11T15:49:19.435Z,1.97
2023-03-11T15:51:49.481Z,2.00
2023-03-11T15:54:16.964Z,3.70
2023-03-11T15:56:44.769Z,3.13
2023-03-11T15:59:16.246Z,3.50
2023-03-11T16:01:43.591Z,2.53
2023-03-11T16:04:15.514Z,2.37
2023-03-11T16:06:43.662Z,2.87
2023-03-11T16:09:11.382Z,3.20
2023-03-11T16:11:39.316Z,5.07
2023-03-11T16:14:06.887Z,1.77
2023-03-11T16:16:34.974Z,3.17
2023-03-11T16:19:02.239Z,2.13
2023-03-11T16:21:34.250Z,2.17
2023-03-11T16:24:02.934Z,2.47
2023-03-11T16:26:30.458Z,1.70
2023-03-11T16:29:06.180Z,3.63
2023-03-11T16:31:40.352Z,4.27
2023-03-11T16:34:07.612Z,2.53
2023-03-11T16:36:35.082Z,4.60
2023-03-11T16:39:03.697Z,1.57
2023-03-11T16:41:40.942Z,2.87
2023-03-11T16:44:09.717Z,2.10
2023-03-11T16:46:37.395Z,4.23
2023-03-11T16:49:05.496Z,1.83
2023-03-11T16:51:33.334Z,2.87
2023-03-11T16:54:01.751Z,2.03
2023-03-11T16:56:29.139Z,3.13
2023-03-11T16:58:56.446Z,2.77
2023-03-11T17:01:23.758Z,2.83
2023-03-11T17:03:52.070Z,2.00
2023-03-11T17:06:20.379Z,2.90
2023-03-11T17:08:49.316Z,2.23
2023-03-11T17:11:18.051Z,3.10
2023-03-11T17:13:45.418Z,2.87
2023-03-11T17:16:12.792Z,2.13
2023-03-11T17:18:40.432Z,1.83
2023-03-11T17:21:08.722Z,2.60
2023-03-11T17:23:36.205Z,2.23
2023-03-11T17:26:08.004Z,4.63
2023-03-11T17:28:35.934Z,2.37
2023-03-11T17:31:03.528Z,2.63
2023-03-11T17:33:30.951Z,2.33
2023-03-11T17:36:02.505Z,2.53
2023-03-11T17:38:29.916Z,3.40
2023-03-11T17:40:57.987Z,4.27
2023-03-11T17:43:25.432Z,3.83
2023-03-11T17:45:53.885Z,3.90
2023-03-11T17:48:21.590Z,2.70
2023-03-11T17:50:49.128Z,3.30
2023-03-11T17:53:16.445Z,3.80
2023-03-11T17:55:43.759Z,3.77
2023-03-11T17:58:14.162Z,4.43
2023-03-11T18:00:41.545Z,2.60
2023-03-11T18:03:08.830Z,2.57
2023-03-11T18:05:37.909Z,2.40
2023-03-11T18:08:05.316Z,2.60
2023-03-11T18:10:32.845Z,3.23
2023-03-11T18:13:00.270Z,4.03
2023-03-11T18:15:28.263Z,5.53
2023-03-11T18:17:57.063Z,2.63
2023-03-11T18:20:24.320Z,4.53
2023-03-11T18:22:51.823Z,2.70
2023-03-11T18:25:19.448Z,3.07
2023-03-11T18:27:48.198Z,2.53
2023-03-11T18:30:15.839Z,2.67
2023-03-11T18:32:43.320Z,2.70
2023-03-11T18:35:11.328Z,3.37
2023-03-11T18:37:38.548Z,2.60
2023-03-11T18:40:07.236Z,3.07
2023-03-11T18:42:35.742Z,4.43
2023-03-11T18:45:07.671Z,5.50
2023-03-11T18:47:37.266Z,15.93
2023-03-11T18:50:05.283Z,9.80
2023-03-11T18:52:33.025Z,5.37
2023-03-11T18:55:00.304Z,3.23
2023-03-11T18:57:27.830Z,3.23
2023-03-11T18:59:55.252Z,7.50
2023-03-11T19:02:23.609Z,3.93
2023-03-11T19:04:50.939Z,7.90
2023-03-11T19:07:18.358Z,3.97
2023-03-11T19:09:45.959Z,6.87
2023-03-11T19:12:13.312Z,6.80
2023-03-11T19:14:40.637Z,7.13
2023-03-11T19:17:08.056Z,8.97
2023-03-11T19:19:35.570Z,9.97
2023-03-11T19:22:03.285Z,6.67
2023-03-11T19:24:30.598Z,7.43
2023-03-11T19:26:58.015Z,6.47
2023-03-11T19:29:27.070Z,4.43
2023-03-11T19:31:54.485Z,6.97
2023-03-11T19:34:23.778Z,7.37
2023-03-11T19:36:51.143Z,11.33
2023-03-11T19:39:18.529Z,19.07
2023-03-11T19:41:45.819Z,7.60
2023-03-11T19:44:13.130Z,5.63
2023-03-11T19:46:40.714Z,3.57
2023-03-11T19:49:08.643Z,5.87
2023-03-11T19:51:49.001Z,5.60
2023-03-11T19:54:18.088Z,4.80
2023-03-11T19:56:45.601Z,4.03
2023-03-11T19:59:13.407Z,5.87
2023-03-11T20:01:42.348Z,5.97
2023-03-11T20:04:10.825Z,9.50
2023-03-11T20:06:38.730Z,18.20
2023-03-11T20:09:07.348Z,6.30
2023-03-11T20:11:37.656Z,8.53
2023-03-11T20:14:06.326Z,5.93
2023-03-11T20:16:34.231Z,7.07
2023-03-11T20:19:01.667Z,6.17
2023-03-11T20:21:29.033Z,5.67
2023-03-11T20:23:57.049Z,8.50
2023-03-11T20:26:25.245Z,5.47
2023-03-11T20:28:55.554Z,3.33
2023-03-11T20:31:23.723Z,4.57
2023-03-11T20:33:51.851Z,8.23
2023-03-11T20:36:21.588Z,5.53
2023-03-11T20:38:49.669Z,5.57
2023-03-11T20:41:17.119Z,6.70
2023-03-11T20:43:44.856Z,5.83
2023-03-11T20:46:12.562Z,6.13
2023-03-11T20:48:40.191Z,3.83
2023-03-11T20:51:11.345Z,4.60
2023-03-11T20:53:39.008Z,6.37
2023-03-11T20:56:17.241Z,7.93
2023-03-11T20:58:45.833Z,4.80
2023-03-11T21:01:17.880Z,5.37
2023-03-11T21:03:45.660Z,5.67
2023-03-11T21:06:17.539Z,3.00
2023-03-11T21:08:44.978Z,2.97
2023-03-11T21:11:12.337Z,3.10
2023-03-11T21:13:39.820Z,3.17
2023-03-11T21:16:08.096Z,5.93
2023-03-11T21:18:35.888Z,7.47
2023-03-11T21:21:04.260Z,5.17
2023-03-11T21:23:31.598Z,6.60
2023-03-11T21:26:02.394Z,10.70
2023-03-11T21:28:29.898Z,11.07
2023-03-11T21:31:01.212Z,12.00
2023-03-11T21:33:29.117Z,8.50
2023-03-11T21:35:57.529Z,13.23
2023-03-11T21:38:25.495Z,58.13
2023-03-11T21:40:53.576Z,44.67
2023-03-11T21:43:21.431Z,19.13
2023-03-11T21:45:51.033Z,13.77
2023-03-11T21:48:21.327Z,12.70
2023-03-11T21:50:49.019Z,14.67
2023-03-11T21:53:16.563Z,12.10
2023-03-11T21:55:43.973Z,11.73
2023-03-11T21:58:11.250Z,8.63
2023-03-11T22:00:38.921Z,8.63
2023-03-11T22:03:06.485Z,8.70
2023-03-11T22:05:33.777Z,6.87
2023-03-11T22:08:01.120Z,10.10
2023-03-11T22:10:28.579Z,13.27
2023-03-11T22:12:55.940Z,13.43
2023-03-11T22:15:23.410Z,11.87
2023-03-11T22:17:51.118Z,13.10
2023-03-11T22:20:18.597Z,8.17
2023-03-11T22:22:46.010Z,13.03
2023-03-11T22:25:13.282Z,11.83
2023-03-11T22:27:40.995Z,6.60
2023-03-11T22:30:09.393Z,8.10
2023-03-11T22:32:36.938Z,6.63
2023-03-11T22:35:04.470Z,10.37
2023-03-11T22:37:31.714Z,21.17
2023-03-11T22:39:59.291Z,11.90
2023-03-11T22:42:26.755Z,9.30
2023-03-11T22:44:54.031Z,8.07
2023-03-11T22:47:21.452Z,10.23
2023-03-11T22:49:48.830Z,9.33
2023-03-11T22:52:16.992Z,7.37
2023-03-11T22:54:44.482Z,8.60
2023-03-11T22:57:11.765Z,6.33
2023-03-11T22:59:39.163Z,6.07
2023-03-11T23:02:06.508Z,8.23
2023-03-11T23:04:33.750Z,6.30
2023-03-11T23:07:02.371Z,7.47
2023-03-11T23:09:29.696Z,11.83
2023-03-11T23:11:56.959Z,11.47
2023-03-11T23:14:37.744Z,13.80
2023-03-11T23:17:11.335Z,11.43
2023-03-11T23:19:42.561Z,5.90
2023-03-11T23:22:09.767Z,5.67
2023-03-11T23:24:37.004Z,5.83
2023-03-11T23:27:05.098Z,6.40
2023-03-11T23:29:32.613Z,4.43
2023-03-11T23:31:59.942Z,3.70
2023-03-11T23:34:27.240Z,3.07
2023-03-11T23:36:54.586Z,4.73
2023-03-11T23:39:21.931Z,3.73
2023-03-11T23:41:49.330Z,3.83
2023-03-11T23:44:17.053Z,6.20
2023-03-11T23:46:44.601Z,4.17
2023-03-11T23:49:11.927Z,4.83
2023-03-11T23:51:39.176Z,56.50
2023-03-11T23:54:07.269Z,58.40
2023-03-11T23:56:34.536Z,36.03
2023-03-11T23:59:01.813Z,23.83
